createdAt,value
2023-04-14T00:00:32.027Z,7.28
2023-04-14T00:03:39.001Z,11.45
2023-04-14T00:06:45.324Z,9.30
2023-04-14T00:09:56.888Z,12.13
2023-04-14T00:13:03.258Z,12.03
2023-04-14T00:16:10.037Z,11.28
2023-04-14T00:19:17.960Z,12.00
2023-04-14T00:22:22.595Z,13.35
2023-04-14T00:25:28.061Z,8.63
2023-04-14T00:28:34.013Z,8.83
2023-04-14T00:31:41.744Z,10.65
2023-04-14T00:34:46.587Z,10.35
2023-04-14T00:37:52.989Z,9.55
2023-04-14T00:41:01.567Z,9.28
2023-04-14T00:44:10.674Z,11.97
2023-04-14T00:47:16.668Z,18.60
2023-04-14T00:50:24.160Z,11.68
2023-04-14T00:53:31.113Z,19.17
2023-04-14T00:56:38.023Z,20.17
2023-04-14T00:59:44.666Z,19.15
2023-04-14T01:02:50.314Z,22.90
2023-04-14T01:05:58.550Z,26.12
2023-04-14T01:09:06.170Z,21.27
2023-04-14T01:12:44.369Z,21.60
2023-04-14T01:16:03.899Z,22.40
2023-04-14T01:19:25.983Z,26.68
2023-04-14T01:22:32.158Z,24.12
2023-04-14T01:26:04.499Z,28.07
2023-04-14T01:29:49.808Z,29.35
2023-04-14T01:32:59.520Z,24.55
2023-04-14T01:36:10.815Z,25.88
2023-04-14T01:39:18.373Z,26.20
2023-04-14T01:42:28.222Z,27.93
2023-04-14T01:45:42.167Z,24.92
2023-04-14T01:48:48.024Z,30.95
2023-04-14T01:51:56.529Z,25.40
2023-04-14T01:55:04.966Z,25.48
2023-04-14T01:58:12.937Z,26.07
2023-04-14T02:01:18.917Z,23.50
2023-04-14T02:04:28.593Z,29.57
2023-04-14T02:07:34.427Z,30.52
2023-04-14T02:10:40.014Z,28.65
2023-04-14T02:13:46.824Z,23.02
2023-04-14T02:16:56.465Z,24.45
2023-04-14T02:20:02.554Z,29.20
2023-04-14T02:23:07.904Z,28.10
2023-04-14T02:26:19.862Z,31.52
2023-04-14T02:29:29.160Z,30.17
2023-04-14T02:32:43.665Z,26.85
2023-04-14T02:35:56.814Z,29.70
2023-04-14T02:39:11.880Z,29.02
2023-04-14T02:42:21.847Z,26.95
2023-04-14T02:45:34.410Z,30.17
2023-04-14T02:48:41.332Z,32.90
2023-04-14T02:51:51.188Z,33.05
2023-04-14T02:54:57.279Z,33.08
2023-04-14T02:58:03.884Z,28.90
2023-04-14T03:01:09.687Z,26.85
2023-04-14T03:04:15.860Z,25.82
2023-04-14T03:07:21.996Z,28.73
2023-04-14T03:10:27.795Z,26.75
2023-04-14T03:13:35.884Z,28.17
2023-04-14T03:16:43.263Z,23.67
2023-04-14T03:19:49.090Z,24.82
2023-04-14T03:22:55.146Z,23.65
2023-04-14T03:26:02.580Z,25.50
2023-04-14T03:29:08.995Z,27.45
2023-04-14T03:32:17.658Z,25.57
2023-04-14T03:35:23.937Z,29.02
2023-04-14T03:38:33.029Z,27.37
2023-04-14T03:41:45.414Z,23.02
2023-04-14T03:44:52.367Z,25.50
2023-04-14T03:48:02.085Z,22.90
2023-04-14T03:51:10.379Z,25.35
2023-04-14T03:54:16.771Z,26.00
2023-04-14T03:57:17.993Z,26.55
2023-04-14T04:00:26.014Z,24.12
2023-04-14T04:03:33.264Z,25.10
2023-04-14T04:06:39.837Z,23.77
2023-04-14T04:09:45.824Z,28.95
2023-04-14T04:12:51.179Z,21.25
2023-04-14T04:15:50.896Z,23.92
2023-04-14T04:18:56.871Z,26.35
2023-04-14T04:22:06.699Z,26.40
2023-04-14T04:25:12.907Z,29.15
2023-04-14T04:28:20.573Z,22.37
2023-04-14T04:31:26.533Z,26.27
2023-04-14T04:34:34.213Z,23.47
2023-04-14T04:37:41.996Z,24.98
2023-04-14T04:40:46.117Z,28.00
2023-04-14T04:43:34.222Z,22.25
2023-04-14T04:46:52.141Z,33.13
2023-04-14T04:49:46.064Z,25.03
2023-04-14T04:52:50.857Z,23.90
2023-04-14T04:55:57.848Z,27.42
2023-04-14T04:59:03.986Z,24.40
2023-04-14T05:02:11.732Z,21.40
2023-04-14T05:05:17.142Z,24.67
2023-04-14T05:08:22.241Z,23.42
2023-04-14T05:11:28.894Z,21.25
2023-04-14T05:14:34.603Z,20.95
2023-04-14T05:17:34.147Z,22.65
2023-04-14T05:20:21.196Z,19.10
2023-04-14T05:23:13.782Z,20.00
2023-04-14T05:26:16.232Z,23.95
2023-04-14T05:28:55.140Z,18.98
2023-04-14T05:31:48.065Z,18.52
2023-04-14T05:34:56.673Z,15.72
2023-04-14T05:38:02.692Z,22.10
2023-04-14T05:41:09.569Z,15.72
2023-04-14T05:44:16.583Z,16.32
2023-04-14T05:47:22.438Z,19.98
2023-04-14T05:50:30.720Z,17.12
2023-04-14T05:53:36.407Z,17.40
2023-04-14T05:56:42.546Z,15.50
2023-04-14T05:59:48.543Z,12.95
2023-04-14T06:02:55.375Z,16.82
2023-04-14T06:06:02.032Z,18.75
2023-04-14T06:09:08.208Z,17.42
2023-04-14T06:12:13.971Z,15.40
2023-04-14T06:15:20.723Z,15.50
2023-04-14T06:18:27.491Z,15.63
2023-04-14T06:21:34.092Z,14.30
2023-04-14T06:24:41.753Z,15.08
2023-04-14T06:27:49.518Z,16.35
2023-04-14T06:30:55.453Z,12.40
2023-04-14T06:34:00.891Z,18.82
2023-04-14T06:37:08.504Z,11.80
2023-04-14T06:40:14.265Z,13.28
2023-04-14T06:43:24.663Z,16.57
2023-04-14T06:46:31.686Z,15.93
2023-04-14T06:49:32.087Z,17.00
2023-04-14T06:55:44.909Z,16.15
2023-04-14T06:58:51.503Z,9.78
2023-04-14T07:01:56.778Z,10.50
2023-04-14T07:05:02.540Z,9.55
2023-04-14T07:08:09.535Z,10.55
2023-04-14T07:11:19.476Z,10.10
2023-04-14T07:17:30.174Z,9.48
2023-04-14T07:20:36.436Z,10.05
2023-04-14T07:23:43.886Z,13.50
2023-04-14T07:26:51.398Z,11.68
2023-04-14T07:29:57.933Z,12.28
2023-04-14T07:33:03.809Z,13.70
2023-04-14T07:36:11.486Z,12.23
2023-04-14T07:39:22.507Z,9.08
2023-04-14T07:42:26.590Z,12.88
2023-04-14T07:45:32.696Z,14.53
2023-04-14T07:48:39.141Z,11.75
2023-04-14T07:51:46.762Z,7.47
2023-04-14T07:54:52.752Z,11.83
2023-04-14T07:57:58.008Z,11.03
2023-04-14T08:01:02.961Z,9.23
2023-04-14T08:04:14.003Z,9.85
2023-04-14T08:07:20.780Z,15.53
2023-04-14T08:10:26.724Z,11.15
2023-04-14T08:13:33.415Z,15.30
2023-04-14T08:16:41.923Z,11.40
2023-04-14T08:19:48.408Z,14.43
2023-04-14T08:22:53.945Z,12.50
2023-04-14T08:25:59.740Z,10.18
2023-04-14T08:29:06.336Z,14.28
2023-04-14T08:32:12.474Z,12.15
2023-04-14T08:35:39.096Z,10.53
2023-04-14T08:38:24.817Z,10.63
2023-04-14T08:41:33.720Z,11.05
2023-04-14T08:44:40.210Z,12.35
2023-04-14T08:47:47.062Z,9.40
2023-04-14T08:51:00.825Z,12.85
2023-04-14T08:54:09.892Z,11.35
2023-04-14T08:57:17.826Z,14.90
2023-04-14T09:00:26.043Z,8.80
2023-04-14T09:03:26.698Z,12.25
2023-04-14T09:06:35.276Z,15.43
2023-04-14T09:09:41.448Z,8.58
2023-04-14T09:12:47.089Z,11.12
2023-04-14T09:15:53.447Z,11.97
2023-04-14T09:19:06.740Z,13.98
2023-04-14T09:22:06.692Z,11.10
2023-04-14T09:25:15.526Z,18.02
2023-04-14T09:28:22.254Z,11.95
2023-04-14T09:31:28.372Z,11.68
2023-04-14T09:34:34.465Z,14.43
2023-04-14T09:37:40.616Z,15.72
2023-04-14T09:40:47.883Z,15.75
2023-04-14T09:43:54.389Z,12.53
2023-04-14T09:47:21.622Z,9.50
2023-04-14T09:50:27.875Z,12.60
2023-04-14T09:53:42.706Z,19.02
2023-04-14T09:56:48.186Z,19.30
2023-04-14T09:59:54.179Z,20.37
2023-04-14T10:03:10.602Z,25.23
2023-04-14T10:06:17.296Z,25.50
2023-04-14T10:09:22.284Z,35.08
2023-04-14T10:12:29.435Z,32.85
2023-04-14T10:15:36.018Z,38.73
2023-04-14T10:18:41.781Z,29.92
2023-04-14T10:21:48.026Z,30.55
2023-04-14T10:24:53.441Z,24.45
2023-04-14T10:27:59.100Z,27.50
2023-04-14T10:31:05.555Z,30.80
2023-04-14T10:34:10.674Z,22.25
2023-04-14T10:37:30.311Z,25.25
2023-04-14T10:40:35.889Z,19.65
2023-04-14T10:43:44.218Z,19.07
2023-04-14T10:47:01.193Z,19.48
2023-04-14T10:50:09.105Z,19.90
2023-04-14T10:53:19.113Z,21.77
2023-04-14T10:56:24.573Z,23.42
2023-04-14T10:59:30.405Z,23.25
2023-04-14T11:02:47.327Z,20.15
2023-04-14T11:05:57.665Z,17.23
2023-04-14T11:09:04.798Z,13.32
2023-04-14T11:12:10.926Z,17.50
2023-04-14T11:15:20.975Z,20.75
2023-04-14T11:18:36.721Z,15.68
2023-04-14T11:21:41.469Z,16.52
2023-04-14T11:24:48.235Z,19.92
2023-04-14T11:27:53.737Z,29.95
2023-04-14T11:30:59.583Z,25.85
2023-04-14T11:34:05.745Z,25.15
2023-04-14T11:37:13.033Z,28.62
2023-04-14T11:40:19.563Z,25.12
2023-04-14T11:43:25.908Z,26.25
2023-04-14T11:46:32.916Z,23.77
2023-04-14T11:49:50.113Z,23.83
2023-04-14T11:53:06.053Z,25.85
2023-04-14T11:56:12.319Z,23.77
2023-04-14T11:59:18.328Z,16.95
2023-04-14T12:02:28.057Z,15.70
2023-04-14T12:05:41.016Z,15.83
2023-04-14T12:08:46.804Z,19.37
2023-04-14T12:11:52.892Z,13.58
2023-04-14T12:15:04.467Z,11.78
2023-04-14T12:18:10.932Z,10.28
2023-04-14T12:21:19.341Z,11.10
2023-04-14T12:24:25.148Z,12.95
2023-04-14T12:27:31.466Z,13.88
2023-04-14T12:30:18.112Z,10.53
2023-04-14T12:33:21.251Z,14.25
2023-04-14T12:36:23.867Z,13.03
2023-04-14T12:39:29.801Z,9.95
2023-04-14T12:42:36.873Z,10.53
2023-04-14T12:45:42.687Z,8.90
2023-04-14T12:49:00.095Z,11.08
2023-04-14T12:51:59.804Z,10.20
2023-04-14T12:55:06.689Z,12.45
2023-04-14T12:58:13.126Z,9.33
2023-04-14T13:01:22.651Z,12.30
2023-04-14T13:04:28.777Z,6.20
2023-04-14T13:07:34.341Z,4.90
2023-04-14T13:10:39.855Z,13.00
2023-04-14T13:13:48.668Z,5.42
2023-04-14T13:16:56.481Z,6.45
2023-04-14T13:20:02.969Z,8.10
2023-04-14T13:23:09.510Z,10.08
2023-04-14T13:26:15.465Z,18.32
2023-04-14T13:29:21.426Z,20.05
2023-04-14T13:32:27.741Z,10.63
2023-04-14T13:35:33.472Z,9.38
2023-04-14T13:38:40.152Z,5.40
2023-04-14T13:41:46.627Z,6.20
2023-04-14T13:44:54.126Z,6.30
2023-04-14T13:48:03.478Z,7.92
2023-04-14T13:51:09.124Z,6.25
2023-04-14T13:54:14.482Z,4.67
2023-04-14T13:57:19.935Z,5.45
2023-04-14T14:00:19.773Z,10.38
2023-04-14T14:03:27.002Z,7.75
2023-04-14T14:06:27.504Z,10.65
2023-04-14T14:09:20.487Z,11.18
2023-04-14T14:12:19.718Z,8.78
2023-04-14T14:15:26.969Z,7.50
2023-04-14T14:18:34.189Z,9.58
2023-04-14T14:21:40.874Z,7.17
2023-04-14T14:24:46.352Z,11.68
2023-04-14T14:27:51.935Z,10.98
2023-04-14T14:30:57.600Z,6.12
2023-04-14T14:33:50.448Z,6.33
2023-04-14T14:36:55.474Z,4.37
2023-04-14T14:40:02.077Z,7.10
2023-04-14T14:43:07.064Z,7.58
2023-04-14T14:46:12.862Z,5.10
2023-04-14T14:49:19.449Z,10.25
2023-04-14T14:52:25.166Z,5.72
2023-04-14T14:55:32.189Z,5.28
2023-04-14T14:58:38.080Z,6.22
2023-04-14T15:01:43.534Z,7.00
2023-04-14T15:04:49.508Z,6.67
2023-04-14T15:07:56.326Z,10.65
2023-04-14T15:11:02.371Z,5.35
2023-04-14T15:14:10.756Z,5.30
2023-04-14T15:17:16.121Z,6.70
2023-04-14T15:20:22.397Z,8.43
2023-04-14T15:23:28.118Z,7.22
2023-04-14T15:26:34.381Z,4.60
2023-04-14T15:29:41.075Z,5.53
2023-04-14T15:32:47.662Z,7.97
2023-04-14T15:35:53.485Z,8.13
2023-04-14T15:39:00.088Z,9.30
2023-04-14T15:42:07.749Z,6.05
2023-04-14T15:45:14.018Z,3.75
2023-04-14T15:48:20.520Z,8.13
2023-04-14T15:51:26.135Z,11.68
2023-04-14T15:54:34.788Z,39.95
2023-04-14T15:57:40.989Z,26.45
2023-04-14T16:00:47.272Z,61.73
2023-04-14T16:03:55.359Z,9.23
2023-04-14T16:07:02.398Z,6.70
2023-04-14T16:10:07.669Z,9.48
2023-04-14T16:13:00.978Z,3.35
2023-04-14T16:16:06.479Z,2.65
2023-04-14T16:19:12.783Z,3.92
2023-04-14T16:22:19.356Z,2.60
2023-04-14T16:25:25.029Z,2.45
2023-04-14T16:28:29.692Z,1.42
2023-04-14T16:31:36.138Z,1.50
2023-04-14T16:34:41.657Z,3.37
2023-04-14T16:37:47.744Z,3.35
2023-04-14T16:40:54.337Z,3.45
2023-04-14T16:43:59.260Z,4.47
2023-04-14T16:47:05.379Z,4.12
2023-04-14T16:50:10.946Z,3.15
2023-04-14T16:53:17.126Z,8.40
2023-04-14T16:56:24.951Z,5.28
2023-04-14T16:59:23.851Z,4.85
2023-04-14T17:02:10.598Z,4.67
2023-04-14T17:05:05.233Z,3.75
2023-04-14T17:07:58.216Z,3.83
2023-04-14T17:11:04.165Z,2.57
2023-04-14T17:14:08.975Z,4.00
2023-04-14T17:17:15.171Z,3.08
2023-04-14T17:20:21.676Z,2.37
2023-04-14T17:23:27.147Z,2.60
2023-04-14T17:26:33.017Z,3.05
2023-04-14T17:29:39.537Z,2.65
2023-04-14T17:32:45.377Z,5.67
2023-04-14T17:35:51.175Z,2.60
2023-04-14T17:38:58.290Z,3.52
2023-04-14T17:42:05.041Z,4.20
2023-04-14T17:45:12.583Z,3.60
2023-04-14T17:48:18.460Z,2.77
2023-04-14T17:51:24.303Z,3.25
2023-04-14T17:54:29.853Z,2.02
2023-04-14T17:57:36.350Z,1.77
2023-04-14T18:00:42.916Z,2.83
2023-04-14T18:03:50.985Z,3.92
2023-04-14T18:06:57.575Z,3.65
2023-04-14T18:10:03.462Z,2.33
2023-04-14T18:13:09.147Z,2.27
2023-04-14T18:16:14.575Z,1.67
2023-04-14T18:19:22.969Z,2.47
2023-04-14T18:22:28.610Z,2.92
2023-04-14T18:28:43.559Z,6.03
2023-04-14T18:31:49.077Z,2.75
2023-04-14T18:34:54.867Z,3.70
2023-04-14T18:38:00.719Z,2.40
2023-04-14T18:41:07.822Z,3.05
2023-04-14T18:44:13.013Z,6.72
2023-04-14T18:47:17.815Z,4.78
2023-04-14T18:50:26.678Z,4.37
2023-04-14T18:53:32.463Z,7.45
2023-04-14T18:56:38.974Z,7.10
2023-04-14T18:59:45.604Z,3.27
2023-04-14T19:02:52.429Z,4.75
2023-04-14T19:06:01.991Z,3.15
2023-04-14T19:09:09.385Z,3.90
2023-04-14T19:15:18.137Z,4.30
2023-04-14T19:18:24.628Z,3.98
2023-04-14T19:21:31.095Z,2.40
2023-04-14T19:24:38.431Z,2.77
2023-04-14T19:27:44.921Z,6.97
2023-04-14T19:30:50.857Z,6.72
2023-04-14T19:33:56.434Z,7.15
2023-04-14T19:37:01.629Z,3.22
2023-04-14T19:40:07.203Z,2.27
2023-04-14T19:43:15.031Z,7.47
2023-04-14T19:46:21.451Z,4.00
2023-04-14T19:49:27.361Z,5.55
2023-04-14T19:52:33.358Z,2.75
2023-04-14T19:55:38.844Z,2.83
2023-04-14T19:58:44.313Z,4.70
2023-04-14T20:01:49.299Z,2.50
2023-04-14T20:04:55.296Z,3.85
2023-04-14T20:08:02.146Z,4.15
2023-04-14T20:11:07.857Z,6.33
2023-04-14T20:14:13.527Z,4.83
2023-04-14T20:17:19.312Z,3.87
2023-04-14T20:20:25.753Z,1.50
2023-04-14T20:23:31.764Z,7.30
2023-04-14T20:26:37.426Z,4.83
2023-04-14T20:29:44.086Z,2.62
2023-04-14T20:32:50.785Z,3.10
2023-04-14T20:35:58.633Z,3.27
2023-04-14T20:39:05.029Z,2.72
2023-04-14T20:42:10.696Z,3.27
2023-04-14T20:45:17.685Z,5.22
2023-04-14T20:48:23.456Z,5.35
2023-04-14T20:51:30.116Z,4.12
2023-04-14T20:54:29.899Z,4.45
2023-04-14T20:57:35.802Z,3.52
2023-04-14T21:00:42.046Z,7.20
2023-04-14T21:03:48.675Z,3.55
2023-04-14T21:06:56.151Z,8.58
2023-04-14T21:10:01.775Z,5.50
2023-04-14T21:15:28.763Z,4.83
2023-04-14T21:16:19.855Z,3.87
2023-04-14T21:19:20.623Z,5.45
2023-04-14T21:22:14.325Z,5.35
2023-04-14T21:25:14.275Z,4.85
2023-04-14T21:28:20.781Z,4.12
2023-04-14T21:31:26.488Z,4.87
2023-04-14T21:34:33.685Z,6.92
2023-04-14T21:37:39.420Z,3.75
2023-04-14T21:40:44.632Z,5.50
2023-04-14T21:43:50.408Z,4.42
2023-04-14T21:46:55.842Z,3.87
2023-04-14T21:50:02.801Z,4.22
2023-04-14T21:53:09.822Z,3.77
2023-04-14T21:56:15.717Z,6.47
2023-04-14T21:59:21.136Z,3.25
2023-04-14T22:02:28.429Z,2.15
2023-04-14T22:05:33.852Z,5.80
2023-04-14T22:08:40.576Z,5.70
2023-04-14T22:11:46.802Z,4.42
2023-04-14T22:14:52.183Z,4.15
2023-04-14T22:17:58.704Z,3.02
2023-04-14T22:21:05.662Z,3.92
2023-04-14T22:24:11.242Z,3.75
2023-04-14T22:27:17.219Z,4.05
2023-04-14T22:30:24.722Z,3.12
2023-04-14T22:33:32.189Z,3.12
2023-04-14T22:36:37.792Z,6.12
2023-04-14T22:39:43.920Z,3.98
2023-04-14T22:42:49.689Z,3.20
2023-04-14T22:45:55.374Z,3.33
2023-04-14T22:49:03.514Z,4.78
2023-04-14T22:52:09.868Z,4.60
2023-04-14T22:55:16.197Z,3.35
2023-04-14T22:58:24.216Z,3.20
2023-04-14T23:01:32.571Z,2.90
2023-04-14T23:04:38.179Z,3.87
2023-04-14T23:07:44.816Z,5.53
2023-04-14T23:10:51.209Z,3.52
2023-04-14T23:13:57.662Z,4.20
2023-04-14T23:17:03.333Z,4.40
2023-04-14T23:20:09.493Z,7.53
2023-04-14T23:23:16.465Z,5.67
2023-04-14T23:26:22.134Z,3.60
2023-04-14T23:29:29.326Z,4.55
2023-04-14T23:32:34.820Z,4.97
2023-04-14T23:35:43.125Z,4.08
2023-04-14T23:38:49.701Z,5.08
2023-04-14T23:41:54.659Z,8.68
2023-04-14T23:45:01.118Z,3.42
2023-04-14T23:48:07.114Z,5.10
2023-04-14T23:51:15.771Z,3.62
2023-04-14T23:54:21.382Z,5.97
2023-04-14T23:57:28.050Z,4.15
